Weather at Sharp Central Star Apartments Heliports

Public forecast

Using degrees Celsius for public forecast. Weather courtesy of forecast.io.

Closest aviation weather report (METAR) to Sharp Central Star Apartments Heliports

Closest report is Gimhae International Airport, 6.3 nm (11.6 km) WNW. Retrieved 2020/09/30 22:00 UTC (50 minutes ago):

RKPK 302200Z 36006KT CAVOK 15/12 Q1014

Closest aviation forecast (TAF) to Sharp Central Star Apartments Heliports

Closest forecast is Gimhae International Airport, 6.3 nm (11.6 km) WNW. Retrieved 2020/09/30 18:00 UTC (5 hours ago):

TAF RKPK 301700Z 3018/0124 03006KT CAVOK TN13/3021Z TX26/0106Z